createdAt,value
2022-10-23T00:01:37.534Z,7.80
2022-10-23T00:04:12.120Z,7.32
2022-10-23T00:06:40.438Z,10.27
2022-10-23T00:09:09.898Z,5.57
2022-10-23T00:11:37.623Z,8.20
2022-10-23T00:14:07.300Z,11.05
2022-10-23T00:16:35.574Z,10.85
2022-10-23T00:19:04.116Z,6.10
2022-10-23T00:21:31.916Z,10.35
2022-10-23T00:23:59.761Z,7.85
2022-10-23T00:26:27.580Z,8.10
2022-10-23T00:28:55.750Z,8.15
2022-10-23T00:31:24.374Z,9.00
2022-10-23T00:33:52.593Z,10.00
2022-10-23T00:36:21.779Z,6.75
2022-10-23T00:41:22.094Z,8.88
2022-10-23T00:44:07.456Z,9.18
2022-10-23T00:46:36.468Z,11.65
2022-10-23T00:51:40.386Z,8.63
2022-10-23T00:54:25.456Z,9.13
2022-10-23T00:56:56.955Z,7.38
2022-10-23T00:59:25.239Z,7.68
2022-10-23T01:01:53.182Z,6.65
2022-10-23T01:04:22.540Z,8.23
2022-10-23T01:06:59.554Z,7.93
2022-10-23T01:09:40.630Z,8.45
2022-10-23T01:12:38.714Z,8.30
2022-10-23T01:15:15.386Z,8.48
2022-10-23T01:17:50.097Z,8.77
2022-10-23T01:20:23.999Z,7.78
2022-10-23T01:22:55.157Z,9.50
2022-10-23T01:25:39.077Z,8.63
2022-10-23T01:28:11.218Z,9.18
2022-10-23T01:30:42.935Z,12.02
2022-10-23T01:33:17.609Z,10.95
2022-10-23T01:35:52.106Z,10.95
2022-10-23T01:38:42.125Z,8.65
2022-10-23T01:41:28.606Z,11.73
2022-10-23T01:44:04.500Z,11.13
2022-10-23T01:46:35.562Z,9.43
2022-10-23T01:49:08.033Z,9.65
2022-10-23T01:51:38.639Z,9.23
2022-10-23T01:54:10.503Z,11.55
2022-10-23T01:56:41.267Z,9.55
2022-10-23T01:59:13.367Z,7.40
2022-10-23T02:01:45.590Z,8.93
2022-10-23T02:04:18.473Z,9.75
2022-10-23T02:06:46.176Z,10.02
2022-10-23T02:09:14.394Z,9.13
2022-10-23T02:11:54.159Z,10.23
2022-10-23T02:14:34.053Z,10.02
2022-10-23T02:17:12.224Z,9.40
2022-10-23T02:20:12.140Z,7.60
2022-10-23T02:22:46.772Z,10.88
2022-10-23T02:25:19.881Z,9.98
2022-10-23T02:27:50.952Z,9.18
2022-10-23T02:30:20.247Z,8.07
2022-10-23T02:32:53.572Z,10.43
2022-10-23T02:35:23.184Z,10.02
2022-10-23T02:37:55.800Z,10.80
2022-10-23T02:40:27.498Z,9.82
2022-10-23T02:43:01.026Z,10.88
2022-10-23T02:45:50.223Z,13.60
2022-10-23T02:48:23.349Z,11.50
2022-10-23T02:51:03.140Z,10.35
2022-10-23T02:53:43.856Z,10.77
2022-10-23T02:56:29.052Z,11.30
2022-10-23T02:59:21.171Z,10.00
2022-10-23T03:01:53.239Z,10.15
2022-10-23T03:04:24.915Z,9.07
2022-10-23T03:06:52.828Z,10.50
2022-10-23T03:09:20.593Z,10.35
2022-10-23T03:11:48.261Z,9.40
2022-10-23T03:14:15.953Z,10.88
2022-10-23T03:16:43.674Z,11.25
2022-10-23T03:19:14.372Z,9.95
2022-10-23T03:21:41.866Z,10.13
2022-10-23T03:24:09.544Z,10.55
2022-10-23T03:26:37.123Z,11.30
2022-10-23T03:29:04.668Z,9.98
2022-10-23T03:31:32.466Z,12.15
2022-10-23T03:34:00.501Z,13.52
2022-10-23T03:36:28.020Z,9.80
2022-10-23T03:38:56.922Z,13.30
2022-10-23T03:43:51.999Z,11.57
2022-10-23T03:46:19.775Z,13.02
2022-10-23T03:48:47.409Z,15.07
2022-10-23T03:51:14.924Z,11.20
2022-10-23T03:53:42.470Z,13.82
2022-10-23T03:56:09.892Z,13.18
2022-10-23T03:58:37.457Z,11.95
2022-10-23T04:01:05.047Z,13.57
2022-10-23T04:03:32.513Z,13.07
2022-10-23T04:06:00.190Z,12.65
2022-10-23T04:08:27.894Z,13.20
2022-10-23T04:10:55.912Z,15.98
2022-10-23T04:13:23.689Z,12.60
2022-10-23T04:15:52.624Z,14.82
2022-10-23T04:18:20.410Z,15.63
2022-10-23T04:20:49.402Z,14.43
2022-10-23T04:23:17.918Z,14.55
2022-10-23T04:28:19.016Z,15.70
2022-10-23T04:30:46.592Z,14.35
2022-10-23T04:33:14.377Z,18.83
2022-10-23T04:35:42.039Z,14.98
2022-10-23T04:38:09.610Z,15.93
2022-10-23T04:40:37.614Z,17.00
2022-10-23T04:43:05.226Z,17.73
2022-10-23T04:45:32.708Z,19.70
2022-10-23T04:48:00.102Z,18.25
2022-10-23T04:50:27.679Z,19.25
2022-10-23T04:52:56.509Z,16.83
2022-10-23T05:00:20.910Z,19.20
2022-10-23T05:02:48.585Z,19.90
2022-10-23T05:05:18.304Z,22.50
2022-10-23T05:07:46.040Z,19.98
2022-10-23T05:10:13.817Z,21.45
2022-10-23T05:12:41.416Z,19.58
2022-10-23T05:15:09.288Z,23.55
2022-10-23T05:17:41.745Z,22.95
2022-10-23T05:20:14.459Z,23.85
2022-10-23T05:22:44.541Z,21.65
2022-10-23T05:25:13.235Z,21.02
2022-10-23T05:27:40.842Z,25.63
2022-10-23T05:30:09.525Z,21.25
2022-10-23T05:32:37.714Z,27.67
2022-10-23T05:35:09.749Z,19.60
2022-10-23T05:37:43.213Z,24.15
2022-10-23T05:40:11.631Z,22.60
2022-10-23T05:42:40.936Z,26.48
2022-10-23T05:45:09.942Z,25.95
2022-10-23T05:47:37.397Z,18.40
2022-10-23T05:50:05.362Z,24.52
2022-10-23T05:52:33.388Z,23.98
2022-10-23T05:55:01.101Z,25.35
2022-10-23T05:57:28.992Z,31.48
2022-10-23T05:59:56.589Z,28.67
2022-10-23T06:02:24.301Z,26.70
2022-10-23T06:04:52.117Z,26.60
2022-10-23T06:07:29.128Z,25.17
2022-10-23T06:09:58.939Z,25.55
2022-10-23T06:12:26.638Z,25.98
2022-10-23T06:14:54.386Z,30.02
2022-10-23T06:17:22.043Z,26.70
2022-10-23T06:19:50.265Z,26.17
2022-10-23T06:24:45.717Z,27.77
2022-10-23T06:27:13.260Z,23.85
2022-10-23T06:29:41.633Z,32.00
2022-10-23T06:32:09.399Z,29.17
2022-10-23T06:34:37.175Z,27.77
2022-10-23T06:37:04.877Z,28.25
2022-10-23T06:39:32.773Z,23.95
2022-10-23T06:42:00.484Z,23.02
2022-10-23T06:44:27.987Z,28.80
2022-10-23T06:46:55.664Z,23.70
2022-10-23T06:49:23.497Z,23.27
2022-10-23T06:51:51.214Z,21.75
2022-10-23T06:54:18.837Z,26.30
2022-10-23T06:56:46.361Z,23.75
2022-10-23T06:59:14.359Z,28.63
2022-10-23T07:01:42.047Z,27.52
2022-10-23T07:04:09.777Z,25.55
2022-10-23T07:06:37.396Z,26.50
2022-10-23T07:09:04.923Z,23.88
2022-10-23T07:11:32.657Z,22.92
2022-10-23T07:14:00.167Z,23.05
2022-10-23T07:16:27.699Z,23.23
2022-10-23T07:19:01.283Z,20.67
2022-10-23T07:21:31.940Z,21.45
2022-10-23T07:23:59.477Z,21.38
2022-10-23T07:26:27.721Z,23.73
2022-10-23T07:28:55.591Z,18.67
2022-10-23T07:31:27.975Z,22.48
2022-10-23T07:33:56.165Z,24.80
2022-10-23T07:36:24.264Z,20.40
2022-10-23T07:38:52.169Z,19.95
2022-10-23T07:41:19.752Z,19.85
2022-10-23T07:43:47.253Z,17.23
2022-10-23T07:46:15.011Z,18.05
2022-10-23T07:48:42.956Z,19.95
2022-10-23T07:51:15.921Z,18.15
2022-10-23T07:53:44.130Z,18.90
2022-10-23T07:56:22.976Z,13.83
2022-10-23T07:58:53.816Z,18.75
2022-10-23T08:01:26.221Z,21.52
2022-10-23T08:03:53.697Z,23.45
2022-10-23T08:06:21.142Z,19.35
2022-10-23T08:08:48.783Z,20.85
2022-10-23T08:11:24.844Z,19.42
2022-10-23T08:13:53.584Z,18.95
2022-10-23T08:16:21.769Z,19.30
2022-10-23T08:18:49.902Z,21.45
2022-10-23T08:21:18.118Z,18.50
2022-10-23T08:23:45.595Z,17.52
2022-10-23T08:26:13.459Z,15.98
2022-10-23T08:28:41.449Z,20.48
2022-10-23T08:31:14.675Z,18.98
2022-10-23T08:33:43.138Z,17.00
2022-10-23T08:36:19.355Z,14.77
2022-10-23T08:38:47.762Z,14.80
2022-10-23T08:41:26.315Z,12.68
2022-10-23T08:44:24.845Z,15.98
2022-10-23T08:47:13.786Z,14.07
2022-10-23T08:49:56.580Z,14.02
2022-10-23T08:52:50.908Z,13.80
2022-10-23T08:55:31.135Z,13.63
2022-10-23T08:58:24.517Z,16.55
2022-10-23T09:00:52.462Z,19.45
2022-10-23T09:03:21.549Z,18.35
2022-10-23T09:06:20.095Z,23.02
2022-10-23T09:09:04.943Z,23.05
2022-10-23T09:12:00.142Z,18.52
2022-10-23T09:15:08.480Z,21.42
2022-10-23T09:17:41.410Z,26.13
2022-10-23T09:20:22.327Z,32.28
2022-10-23T09:23:11.166Z,23.45
2022-10-23T09:25:40.475Z,16.85
2022-10-23T09:30:43.557Z,11.52
2022-10-23T09:33:23.717Z,14.68
2022-10-23T09:36:14.220Z,10.63
2022-10-23T09:38:50.535Z,11.80
2022-10-23T09:41:26.489Z,13.85
2022-10-23T09:44:15.703Z,13.95
2022-10-23T09:46:45.879Z,13.00
2022-10-23T09:49:27.792Z,14.40
2022-10-23T09:52:10.290Z,22.75
2022-10-23T09:54:50.593Z,15.48
2022-10-23T09:57:27.277Z,15.10
2022-10-23T09:59:59.399Z,14.25
2022-10-23T10:02:33.386Z,8.68
2022-10-23T10:05:21.714Z,10.05
2022-10-23T10:08:03.667Z,10.32
2022-10-23T10:10:38.117Z,9.32
2022-10-23T10:13:33.310Z,9.50
2022-10-23T10:16:10.769Z,7.68
2022-10-23T10:18:56.361Z,6.40
2022-10-23T10:21:26.998Z,7.63
2022-10-23T10:24:16.131Z,6.18
2022-10-23T10:27:07.310Z,6.38
2022-10-23T10:29:52.280Z,6.30
2022-10-23T10:32:32.285Z,5.10
2022-10-23T10:34:59.665Z,4.78
2022-10-23T10:37:47.377Z,5.40
2022-10-23T10:40:33.280Z,6.25
2022-10-23T10:43:15.565Z,5.03
2022-10-23T10:45:57.589Z,4.85
2022-10-23T10:48:43.087Z,6.75
2022-10-23T10:51:22.161Z,4.80
2022-10-23T10:56:19.185Z,4.53
2022-10-23T10:58:58.049Z,5.03
2022-10-23T11:02:00.214Z,5.20
2022-10-23T11:04:46.234Z,4.65
2022-10-23T11:07:17.787Z,4.03
2022-10-23T11:09:46.381Z,5.38
2022-10-23T11:12:20.584Z,4.05
2022-10-23T11:14:50.020Z,4.80
2022-10-23T11:18:01.060Z,5.05
2022-10-23T11:20:28.480Z,4.57
2022-10-23T11:22:58.507Z,4.78
2022-10-23T11:25:49.760Z,5.20
2022-10-23T11:28:28.845Z,3.42
2022-10-23T11:31:11.964Z,5.75
2022-10-23T11:33:51.979Z,4.70
2022-10-23T11:36:32.457Z,6.15
2022-10-23T11:39:16.546Z,5.32
2022-10-23T11:41:56.345Z,3.65
2022-10-23T11:44:49.414Z,7.90
2022-10-23T11:47:40.339Z,3.85
2022-10-23T11:50:08.202Z,3.17
2022-10-23T11:53:13.549Z,3.42
2022-10-23T11:55:57.630Z,3.85
2022-10-23T11:58:40.870Z,5.00
2022-10-23T12:01:30.719Z,5.18
2022-10-23T12:04:21.050Z,5.18
2022-10-23T12:06:55.437Z,3.85
2022-10-23T12:09:25.392Z,4.68
2022-10-23T12:12:15.772Z,4.82
2022-10-23T12:14:51.226Z,3.38
2022-10-23T12:17:24.883Z,5.18
2022-10-23T12:19:55.131Z,3.90
2022-10-23T12:22:28.253Z,3.65
2022-10-23T12:25:03.138Z,4.55
2022-10-23T12:27:39.245Z,3.67
2022-10-23T12:30:29.127Z,6.35
2022-10-23T12:33:24.843Z,3.83
2022-10-23T12:36:22.681Z,3.53
2022-10-23T12:38:50.848Z,1.98
2022-10-23T12:41:29.640Z,2.45
2022-10-23T12:46:32.639Z,3.85
2022-10-23T12:49:02.344Z,3.75
2022-10-23T12:51:33.390Z,3.83
2022-10-23T12:54:02.744Z,4.20
2022-10-23T12:56:37.299Z,2.92
2022-10-23T12:59:14.123Z,4.10
2022-10-23T13:01:43.443Z,2.60
2022-10-23T13:04:14.179Z,2.90
2022-10-23T13:06:42.131Z,2.95
2022-10-23T13:09:39.603Z,2.95
2022-10-23T13:12:09.109Z,5.55
2022-10-23T13:14:43.642Z,4.35
2022-10-23T13:17:12.573Z,2.75
2022-10-23T13:19:40.373Z,3.88
2022-10-23T13:22:21.634Z,3.22
2022-10-23T13:24:49.358Z,3.80
2022-10-23T13:27:34.605Z,4.40
2022-10-23T13:30:03.264Z,6.35
2022-10-23T13:32:32.697Z,6.30
2022-10-23T13:35:21.066Z,5.78
2022-10-23T13:40:26.120Z,4.30
2022-10-23T13:42:55.912Z,4.65
2022-10-23T13:45:26.773Z,4.32
2022-10-23T13:47:54.275Z,3.92
2022-10-23T13:50:21.770Z,3.88
2022-10-23T13:52:49.247Z,2.67
2022-10-23T13:55:24.746Z,3.00
2022-10-23T13:57:52.896Z,4.00
2022-10-23T14:00:20.623Z,2.87
2022-10-23T14:02:48.314Z,2.85
2022-10-23T14:05:15.813Z,3.35
2022-10-23T14:07:43.770Z,3.15
2022-10-23T14:10:11.729Z,2.30
2022-10-23T14:12:44.192Z,3.28
2022-10-23T14:15:11.969Z,3.35
2022-10-23T14:17:39.775Z,4.80
2022-10-23T14:20:08.386Z,4.30
2022-10-23T14:22:36.071Z,3.80
2022-10-23T14:25:04.270Z,4.18
2022-10-23T14:27:31.862Z,4.30
2022-10-23T14:29:59.533Z,4.10
2022-10-23T14:32:26.909Z,5.00
2022-10-23T14:34:54.743Z,5.22
2022-10-23T14:37:22.642Z,4.63
2022-10-23T14:39:50.539Z,5.15
2022-10-23T14:42:18.234Z,5.97
2022-10-23T14:44:46.555Z,4.20
2022-10-23T14:47:14.154Z,5.03
2022-10-23T14:49:42.591Z,3.60
2022-10-23T14:52:10.596Z,3.45
2022-10-23T14:54:38.217Z,4.07
2022-10-23T14:57:05.874Z,5.65
2022-10-23T14:59:33.702Z,8.20
2022-10-23T15:02:01.324Z,6.05
2022-10-23T15:04:29.059Z,6.18
2022-10-23T15:06:56.687Z,5.35
2022-10-23T15:09:25.313Z,4.93
2022-10-23T15:11:53.117Z,4.65
2022-10-23T15:14:21.153Z,4.03
2022-10-23T15:16:48.907Z,4.70
2022-10-23T15:19:18.700Z,4.95
2022-10-23T15:21:47.770Z,4.82
2022-10-23T15:26:44.549Z,4.97
2022-10-23T15:29:14.512Z,5.43
2022-10-23T15:31:44.413Z,6.93
2022-10-23T15:34:18.866Z,5.45
2022-10-23T15:36:47.476Z,5.55
2022-10-23T15:39:18.559Z,6.30
2022-10-23T15:41:46.560Z,5.65
2022-10-23T15:44:17.345Z,9.93
2022-10-23T15:46:45.478Z,5.78
2022-10-23T15:49:13.639Z,7.57
2022-10-23T15:51:42.651Z,6.97
2022-10-23T15:54:18.968Z,5.85
2022-10-23T15:56:48.790Z,9.35
2022-10-23T15:59:17.354Z,5.63
2022-10-23T16:01:45.078Z,6.47
2022-10-23T16:04:13.503Z,11.83
2022-10-23T16:06:41.779Z,7.75
2022-10-23T16:09:10.123Z,8.10
2022-10-23T16:11:39.453Z,9.68
2022-10-23T16:14:07.951Z,8.55
2022-10-23T16:16:35.679Z,5.63
2022-10-23T16:19:05.078Z,7.67
2022-10-23T16:21:35.741Z,9.57
2022-10-23T16:24:05.965Z,9.73
2022-10-23T16:26:34.452Z,8.70
2022-10-23T16:29:05.367Z,10.70
2022-10-23T16:31:33.698Z,14.07
2022-10-23T16:34:02.903Z,9.90
2022-10-23T16:38:58.926Z,11.50
2022-10-23T16:41:26.403Z,7.78
2022-10-23T16:43:54.063Z,7.95
2022-10-23T16:46:22.661Z,9.82
2022-10-23T16:48:51.730Z,8.50
2022-10-23T16:51:25.270Z,8.40
2022-10-23T16:53:53.650Z,8.35
2022-10-23T16:56:24.089Z,8.45
2022-10-23T16:58:51.903Z,6.60
2022-10-23T17:01:25.560Z,7.80
2022-10-23T17:03:54.481Z,8.15
2022-10-23T17:06:25.137Z,12.82
2022-10-23T17:08:53.906Z,14.23
2022-10-23T17:11:23.557Z,19.20
2022-10-23T17:13:59.134Z,19.40
2022-10-23T17:16:36.838Z,19.75
2022-10-23T17:19:15.797Z,17.73
2022-10-23T17:21:48.837Z,12.43
2022-10-23T17:24:17.393Z,10.82
2022-10-23T17:26:46.525Z,13.52
2022-10-23T17:31:46.117Z,7.00
2022-10-23T17:34:19.657Z,7.60
2022-10-23T17:36:51.362Z,9.32
2022-10-23T17:39:22.564Z,11.02
2022-10-23T17:41:50.775Z,14.57
2022-10-23T17:44:18.993Z,17.42
2022-10-23T17:46:52.253Z,14.80
2022-10-23T17:49:21.289Z,9.18
2022-10-23T17:51:53.978Z,5.03
2022-10-23T17:54:24.665Z,5.13
2022-10-23T17:56:52.705Z,3.30
2022-10-23T17:59:20.616Z,5.28
2022-10-23T18:01:49.293Z,6.55
2022-10-23T18:04:18.880Z,5.03
2022-10-23T18:06:52.930Z,3.33
2022-10-23T18:09:22.345Z,2.65
2022-10-23T18:11:53.797Z,2.92
2022-10-23T18:14:22.137Z,2.45
2022-10-23T18:16:50.163Z,3.78
2022-10-23T18:19:18.669Z,4.03
2022-10-23T18:21:47.856Z,3.45
2022-10-23T18:24:15.972Z,6.88
2022-10-23T18:26:44.333Z,4.60
2022-10-23T18:29:13.385Z,3.70
2022-10-23T18:34:19.725Z,2.05
2022-10-23T18:36:49.512Z,9.50
2022-10-23T18:39:22.519Z,2.25
2022-10-23T18:41:53.645Z,2.17
2022-10-23T18:44:22.553Z,2.70
2022-10-23T18:49:19.897Z,1.38
2022-10-23T18:51:47.489Z,2.53
2022-10-23T18:54:17.642Z,4.28
2022-10-23T18:56:45.441Z,2.47
2022-10-23T18:59:16.652Z,1.42
2022-10-23T19:01:44.749Z,2.65
2022-10-23T19:04:15.835Z,1.58
2022-10-23T19:06:45.774Z,3.78
2022-10-23T19:09:14.399Z,0.90
2022-10-23T19:11:43.204Z,2.05
2022-10-23T19:14:11.113Z,1.45
2022-10-23T19:17:02.911Z,2.65
2022-10-23T19:19:36.095Z,3.63
2022-10-23T19:22:04.841Z,4.20
2022-10-23T19:24:38.134Z,4.30
2022-10-23T19:27:05.978Z,2.90
2022-10-23T19:29:35.622Z,2.88
2022-10-23T19:32:03.677Z,2.80
2022-10-23T19:34:31.337Z,1.60
2022-10-23T19:36:59.369Z,4.38
2022-10-23T19:39:27.539Z,3.15
2022-10-23T19:41:55.586Z,1.87
2022-10-23T19:44:23.607Z,2.10
2022-10-23T19:46:51.408Z,3.20
2022-10-23T19:49:20.398Z,2.05
2022-10-23T19:51:51.314Z,1.50
2022-10-23T19:54:21.232Z,3.65
2022-10-23T19:56:49.554Z,1.58
2022-10-23T19:59:18.062Z,4.78
2022-10-23T20:01:48.115Z,1.67
2022-10-23T20:04:18.845Z,3.50
2022-10-23T20:06:47.108Z,2.88
2022-10-23T20:09:14.840Z,3.13
2022-10-23T20:11:43.647Z,4.37
2022-10-23T20:14:12.153Z,3.15
2022-10-23T20:16:39.755Z,3.13
2022-10-23T20:19:12.938Z,2.78
2022-10-23T20:21:43.724Z,2.28
2022-10-23T20:24:13.133Z,3.75
2022-10-23T20:26:43.172Z,1.70
2022-10-23T20:29:12.291Z,2.45
2022-10-23T20:31:39.951Z,1.20
2022-10-23T20:34:08.250Z,2.67
2022-10-23T20:36:41.130Z,1.37
2022-10-23T20:39:16.164Z,3.17
2022-10-23T20:41:45.191Z,3.30
2022-10-23T20:46:42.108Z,3.40
2022-10-23T20:49:10.195Z,1.98
2022-10-23T20:51:38.039Z,1.33
2022-10-23T20:54:06.224Z,1.63
2022-10-23T20:56:37.100Z,1.57
2022-10-23T20:59:07.724Z,2.17
2022-10-23T21:01:35.339Z,4.22
2022-10-23T21:04:03.723Z,2.60
2022-10-23T21:06:46.219Z,3.03
2022-10-23T21:09:24.214Z,2.70
2022-10-23T21:11:51.664Z,1.83
2022-10-23T21:14:19.043Z,3.58
2022-10-23T21:16:46.896Z,3.65
2022-10-23T21:19:16.098Z,3.30
2022-10-23T21:21:44.452Z,2.53
2022-10-23T21:24:16.498Z,2.50
2022-10-23T21:26:45.195Z,1.75
2022-10-23T21:29:18.649Z,2.72
2022-10-23T21:31:59.697Z,4.50
2022-10-23T21:34:28.002Z,1.60
2022-10-23T21:39:44.001Z,1.80
2022-10-23T21:42:15.417Z,1.63
2022-10-23T21:44:43.223Z,1.55
2022-10-23T21:47:10.772Z,3.03
2022-10-23T21:49:38.265Z,2.83
2022-10-23T21:52:05.994Z,4.55
2022-10-23T21:54:33.648Z,1.98
2022-10-23T21:57:03.280Z,3.75
2022-10-23T21:59:33.140Z,1.67
2022-10-23T22:02:03.250Z,1.90
2022-10-23T22:04:31.162Z,1.20
2022-10-23T22:06:58.842Z,1.52
2022-10-23T22:09:26.666Z,2.38
2022-10-23T22:11:55.131Z,1.77
2022-10-23T22:14:23.460Z,2.55
2022-10-23T22:16:52.283Z,1.20
2022-10-23T22:21:49.766Z,1.02
2022-10-23T22:24:17.747Z,2.33
2022-10-23T22:26:51.712Z,1.42
2022-10-23T22:29:24.848Z,1.20
2022-10-23T22:31:53.011Z,2.08
2022-10-23T22:37:11.772Z,1.38
2022-10-23T22:39:39.667Z,3.47
2022-10-23T22:42:07.089Z,2.53
2022-10-23T22:44:34.766Z,2.20
2022-10-23T22:47:02.506Z,1.95
2022-10-23T22:49:30.152Z,1.13
2022-10-23T22:51:57.879Z,2.85
2022-10-23T22:54:25.402Z,1.95
2022-10-23T22:56:52.906Z,1.90
2022-10-23T22:59:20.660Z,2.65
2022-10-23T23:01:48.685Z,2.42
2022-10-23T23:07:07.981Z,1.48
2022-10-23T23:09:37.344Z,1.98
2022-10-23T23:12:05.556Z,1.15
2022-10-23T23:14:33.192Z,2.78
2022-10-23T23:17:01.022Z,2.25
2022-10-23T23:19:28.835Z,1.13
2022-10-23T23:21:58.608Z,1.83
2022-10-23T23:24:26.700Z,2.42
2022-10-23T23:26:54.207Z,2.60
2022-10-23T23:29:21.927Z,1.50
2022-10-23T23:31:49.610Z,2.30
2022-10-23T23:34:17.336Z,2.65
2022-10-23T23:36:45.052Z,2.65
2022-10-23T23:39:12.554Z,1.88
2022-10-23T23:41:40.075Z,0.95
2022-10-23T23:44:08.491Z,2.53
2022-10-23T23:46:35.963Z,1.70
2022-10-23T23:49:03.491Z,1.70
2022-10-23T23:51:31.173Z,1.38
2022-10-23T23:53:58.804Z,1.58
2022-10-23T23:56:26.494Z,1.23
2022-10-23T23:58:54.107Z,4.25
